createdAt,value
2019-03-13T00:01:07.958Z,92.156982
2019-03-13T00:06:31.190Z,91.326904
2019-03-13T00:11:53.884Z,91.223145
2019-03-13T00:17:16.641Z,91.015625
2019-03-13T00:22:39.311Z,91.223145
2019-03-13T00:28:02.710Z,90.246582
2019-03-13T00:33:25.506Z,90.869141
2019-03-13T00:38:48.246Z,90.869141
2019-03-13T00:44:11.036Z,90.496826
2019-03-13T00:49:34.168Z,90.808105
2019-03-13T00:54:56.802Z,91.119385
2019-03-13T01:00:19.528Z,90.765381
2019-03-13T01:05:42.401Z,90.869141
2019-03-13T01:11:05.068Z,90.765381
2019-03-13T01:16:27.800Z,90.869141
2019-03-13T01:21:50.754Z,90.765381
2019-03-13T01:27:13.479Z,89.935303
2019-03-13T01:32:36.127Z,90.765381
2019-03-13T01:37:58.811Z,90.9729
2019-03-13T01:43:21.496Z,90.246582
2019-03-13T01:48:44.322Z,89.831543
2019-03-13T01:54:07.895Z,89.831543
2019-03-13T01:59:30.856Z,88.549805
2019-03-13T02:04:54.297Z,88.446045
2019-03-13T02:10:21.412Z,88.342285
2019-03-13T02:15:44.130Z,88.964844
2019-03-13T02:21:07.703Z,88.238525
2019-03-13T02:26:30.393Z,88.238525
2019-03-13T02:31:53.924Z,88.38501
2019-03-13T02:37:16.599Z,87.762451
2019-03-13T02:42:39.322Z,87.097168
2019-03-13T02:48:02.598Z,87.969971
2019-03-13T02:53:26.153Z,87.719727
2019-03-13T02:58:48.860Z,87.200928
2019-03-13T03:04:11.638Z,87.408447
2019-03-13T03:09:34.364Z,86.993408
2019-03-13T03:14:56.982Z,86.956787
2019-03-13T03:20:22.102Z,86.956787
2019-03-13T03:25:44.775Z,86.022949
2019-03-13T03:31:07.390Z,86.126709
2019-03-13T03:36:30.677Z,85.36377
2019-03-13T03:41:53.537Z,83.709717
2019-03-13T03:47:16.329Z,84.429932
2019-03-13T03:52:39.182Z,84.118652
2019-03-13T03:58:01.849Z,82.531738
2019-03-13T04:03:24.528Z,81.80542
2019-03-13T04:08:47.484Z,82.324219
2019-03-13T04:14:10.173Z,82.012939
2019-03-13T04:19:32.840Z,82.324219
2019-03-13T04:24:55.637Z,82.324219
2019-03-13T04:30:18.258Z,82.427979
2019-03-13T04:35:40.865Z,81.292725
2019-03-13T04:41:03.568Z,81.90918
2019-03-13T04:46:26.611Z,81.70166
2019-03-13T04:51:49.162Z,81.70166
2019-03-13T04:57:11.775Z,81.70166
2019-03-13T05:02:34.478Z,82.635498
2019-03-13T05:07:57.338Z,82.220459
2019-03-13T05:13:20.090Z,81.768799
2019-03-13T05:18:42.790Z,82.287598
2019-03-13T05:24:05.371Z,82.635498
2019-03-13T05:29:28.075Z,81.665039
2019-03-13T05:34:50.762Z,82.287598
2019-03-13T05:40:13.443Z,82.080078
2019-03-13T05:45:36.122Z,82.080078
2019-03-13T05:50:58.817Z,82.080078
2019-03-13T05:56:21.549Z,81.25
2019-03-13T06:01:44.394Z,81.561279
2019-03-13T06:07:07.017Z,81.768799
2019-03-13T06:12:29.782Z,80.285645
2019-03-13T06:17:52.634Z,80.633545
2019-03-13T06:23:15.444Z,80.493164
2019-03-13T06:28:41.518Z,80.804443
2019-03-13T06:34:04.159Z,83.111572
2019-03-13T06:39:27.936Z,83.215332
2019-03-13T06:44:52.719Z,82.495117
2019-03-13T06:50:15.349Z,85.076904
2019-03-13T06:55:38.122Z,85.839844
2019-03-13T07:01:00.745Z,84.04541
2019-03-13T07:06:23.398Z,84.04541
2019-03-13T07:11:46.041Z,84.04541
2019-03-13T07:17:08.682Z,82.971191
2019-03-13T07:22:31.398Z,83.69751
2019-03-13T07:27:55.083Z,82.250977
2019-03-13T07:33:19.605Z,82.763672
2019-03-13T07:38:42.274Z,83.38623
2019-03-13T07:44:05.011Z,82.312012
2019-03-13T07:49:28.378Z,82.519531
2019-03-13T07:54:51.141Z,83.24585
2019-03-13T08:00:16.675Z,81.903076
2019-03-13T08:05:39.418Z,81.799316
2019-03-13T08:11:02.354Z,82.208252
2019-03-13T08:16:25.959Z,82.48291
2019-03-13T08:21:48.819Z,81.658936
2019-03-13T08:27:11.556Z,81.311035
2019-03-13T08:32:35.189Z,81.207275
2019-03-13T08:37:58.014Z,80.584717
2019-03-13T08:43:20.729Z,80.279541
2019-03-13T08:48:43.327Z,81.311035
2019-03-13T08:54:05.965Z,80.377197
2019-03-13T08:59:28.630Z,79.656982
2019-03-13T09:04:51.387Z,80.175781
2019-03-13T09:10:14.133Z,80.480957
2019-03-13T09:15:37.818Z,79.827881
2019-03-13T09:21:00.994Z,80.13916
2019-03-13T09:26:24.880Z,82.202148
2019-03-13T09:31:47.611Z,83.990479
2019-03-13T09:37:10.273Z,84.960938
2019-03-13T09:42:32.986Z,85.021973
2019-03-13T09:47:56.255Z,84.960938
2019-03-13T09:53:18.910Z,87.542725
2019-03-13T09:58:42.610Z,88.409424
2019-03-13T10:04:05.457Z,88.098145
2019-03-13T10:09:28.144Z,89.953613
2019-03-13T10:14:50.839Z,90.679932
2019-03-13T10:20:13.494Z,92.584229
2019-03-13T10:25:36.281Z,92.06543
2019-03-13T10:30:59.281Z,92.169189
2019-03-13T10:36:32.926Z,90.618896
2019-03-13T10:41:58.563Z,90.826416
2019-03-13T10:47:18.828Z,90.679932
2019-03-13T10:52:42.521Z,89.025879
2019-03-13T10:58:05.277Z,88.262939
2019-03-13T11:03:30.207Z,88.574219
2019-03-13T11:08:52.881Z,86.364746
2019-03-13T11:14:16.398Z,86.157227
2019-03-13T11:19:39.138Z,86.84082
2019-03-13T11:25:01.912Z,86.633301
2019-03-13T11:30:24.656Z,85.498047
2019-03-13T11:35:48.347Z,86.737061
2019-03-13T11:41:11.145Z,86.883545
2019-03-13T11:46:33.840Z,87.5
2019-03-13T11:51:56.543Z,87.811279
2019-03-13T11:57:20.174Z,89.709473
2019-03-13T12:02:43.337Z,92.126465
2019-03-13T12:08:07.041Z,92.230225
2019-03-13T12:13:29.838Z,93.261719
2019-03-13T12:18:53.303Z,95.477295
2019-03-13T12:24:17.147Z,95.373535
2019-03-13T12:29:40.600Z,95.88623
2019-03-13T12:35:03.333Z,97.070312
2019-03-13T12:40:26.138Z,96.032715
2019-03-13T12:45:48.851Z,96.136475
2019-03-13T12:51:11.553Z,96.447754
2019-03-13T12:56:34.345Z,97.485352
2019-03-13T13:01:57.986Z,98.309326
2019-03-13T13:07:20.909Z,98.87085
2019-03-13T13:12:43.739Z,98.919678
2019-03-13T13:18:06.431Z,99.993896
2019-03-13T13:23:29.072Z,99.993896
2019-03-13T13:28:51.731Z,99.993896
2019-03-13T13:34:14.519Z,99.993896
2019-03-13T13:39:37.784Z,99.597168
2019-03-13T13:45:10.855Z,99.993896
2019-03-13T13:51:08.216Z,99.389648
2019-03-13T13:56:40.281Z,99.44458
2019-03-13T14:02:14.383Z,98.620605
2019-03-13T14:07:47.839Z,99.243164
2019-03-13T14:13:21.977Z,99.243164
2019-03-13T14:18:56.153Z,98.309326
2019-03-13T14:24:31.411Z,98.516846
2019-03-13T14:30:04.545Z,98.571777
2019-03-13T14:35:36.494Z,96.97876
2019-03-13T14:41:29.402Z,97.290039
2019-03-13T14:47:04.140Z,97.143555
2019-03-13T14:52:37.171Z,96.520996
2019-03-13T14:58:09.266Z,98.632812
2019-03-13T15:03:44.420Z,98.632812
2019-03-13T15:09:17.628Z,99.353027
2019-03-13T15:14:51.025Z,97.406006
2019-03-13T15:20:23.437Z,96.685791
2019-03-13T15:25:56.757Z,95.855713
2019-03-13T15:31:30.824Z,96.685791
2019-03-13T15:37:05.479Z,95.355225
2019-03-13T15:42:39.936Z,96.636963
2019-03-13T15:48:03.061Z,95.959473
2019-03-13T15:53:26.839Z,95.605469
2019-03-13T15:58:59.798Z,97.613525
2019-03-13T16:04:33.720Z,97.967529
2019-03-13T16:10:05.976Z,96.478271
2019-03-13T16:15:37.572Z,97.302246
2019-03-13T16:21:01.263Z,97.821045
2019-03-13T16:26:23.945Z,98.175049
2019-03-13T16:31:46.658Z,97.76001
2019-03-13T16:37:09.486Z,97.65625
2019-03-13T16:42:32.233Z,97.65625
2019-03-13T16:47:55.096Z,96.789551
2019-03-13T16:53:17.787Z,96.166992
2019-03-13T16:58:40.538Z,95.855713
2019-03-13T17:04:05.319Z,95.855713
2019-03-13T17:09:27.987Z,95.446777
2019-03-13T17:14:50.995Z,94.927979
2019-03-13T17:20:13.715Z,94.824219
2019-03-13T17:25:36.445Z,93.585205
2019-03-13T17:30:59.752Z,93.64624
2019-03-13T17:36:22.499Z,93.64624
2019-03-13T17:41:45.798Z,94.519043
2019-03-13T17:47:08.538Z,95.959473
2019-03-13T17:52:31.303Z,95.654297
2019-03-13T17:57:54.254Z,93.383789
2019-03-13T18:03:17.055Z,91.174316
2019-03-13T18:08:39.847Z,87.213135
2019-03-13T18:14:02.762Z,86.700439
2019-03-13T18:19:35.014Z,85.565186
2019-03-13T18:24:56.927Z,86.077881
2019-03-13T18:30:29.949Z,85.046387
2019-03-13T18:35:53.539Z,84.533691
2019-03-13T18:41:16.494Z,85.668945
2019-03-13T18:46:40.232Z,87.664795
2019-03-13T18:52:03.342Z,87.353516
2019-03-13T18:57:36.831Z,86.120605
2019-03-13T19:03:00.196Z,85.913086
2019-03-13T19:08:23.072Z,85.601807
2019-03-13T19:13:58.269Z,85.772705
2019-03-13T19:19:21.187Z,83.605957
2019-03-13T19:24:45.302Z,83.709717
2019-03-13T19:30:08.632Z,83.190918
2019-03-13T19:35:41.813Z,82.678223
2019-03-13T19:41:08.284Z,83.087158
2019-03-13T19:46:28.433Z,82.574463
2019-03-13T19:51:51.878Z,83.294678
2019-03-13T19:57:15.766Z,84.057617
2019-03-13T20:02:41.241Z,84.057617
2019-03-13T20:08:06.365Z,84.777832
2019-03-13T20:13:30.474Z,85.192871
2019-03-13T20:18:53.618Z,86.572266
2019-03-13T20:24:17.107Z,86.572266
2019-03-13T20:29:40.193Z,87.915039
2019-03-13T20:35:03.329Z,87.915039
2019-03-13T20:40:27.868Z,89.190674
2019-03-13T20:45:52.538Z,88.885498
2019-03-13T20:51:16.541Z,89.813232
2019-03-13T20:56:40.589Z,90.429688
2019-03-13T21:02:03.442Z,89.190674
2019-03-13T21:07:26.886Z,87.188721
2019-03-13T21:12:50.429Z,87.29248
2019-03-13T21:18:13.954Z,84.777832
2019-03-13T21:23:38.114Z,84.777832
2019-03-13T21:29:01.127Z,85.540771
2019-03-13T21:34:24.054Z,85.394287
2019-03-13T21:39:47.174Z,84.881592
2019-03-13T21:45:21.529Z,82.885742
2019-03-13T21:50:35.311Z,83.850098
2019-03-13T21:55:58.587Z,83.435059
2019-03-13T22:01:21.857Z,84.362793
2019-03-13T22:06:44.973Z,85.498047
2019-03-13T22:12:08.023Z,87.1521
2019-03-13T22:17:31.213Z,85.809326
2019-03-13T22:22:54.219Z,84.881592
2019-03-13T22:28:17.135Z,84.777832
2019-03-13T22:33:39.913Z,82.263184
2019-03-13T22:39:02.721Z,82.470703
2019-03-13T22:44:25.526Z,83.709717
2019-03-13T22:49:49.023Z,84.881592
2019-03-13T22:55:11.669Z,86.016846
2019-03-13T23:00:34.396Z,85.601807
2019-03-13T23:05:57.022Z,84.985352
2019-03-13T23:11:20.313Z,84.161377
2019-03-13T23:16:42.978Z,82.611084
2019-03-13T23:22:07.636Z,81.787109
2019-03-13T23:27:30.912Z,81.066895
2019-03-13T23:32:54.554Z,81.37207
2019-03-13T23:38:17.163Z,82.507324
2019-03-13T23:43:39.862Z,82.342529
2019-03-13T23:49:02.547Z,83.929443
2019-03-13T23:54:25.890Z,85.064697
2019-03-13T23:59:48.485Z,85.784912
